Time;durP1;ratioP1;P1;durP2;ratioP2;P2;SDS_P1;SDS_P2;PMS_P1;PMS_P2;Temp;Humidity;BMP_temperature;BMP_pressure;BME280_temperature;BME280_humidity;BME280_pressure;Samples;Min_cycle;Max_cycle;Signal;HPM_P1;HPM_P2
2023/02/18 00:01:00;;;;;;;5.32;3.45;;;;;;;18.50;48.96;102111.81;5032659;28;20112;-62
2023/02/18 00:03:26;;;;;;;6.72;3.15;;;;;;;18.58;48.86;102130.91;5034845;28;20025;-62
2023/02/18 00:05:52;;;;;;;4.45;2.85;;;;;;;18.58;49.49;102130.91;5019449;28;20061;-62
2023/02/18 00:08:18;;;;;;;3.65;3.20;;;;;;;18.56;48.46;102132.06;5054055;28;20401;-62
2023/02/18 00:10:43;;;;;;;3.53;3.03;;;;;;;18.55;49.08;102109.50;5036048;28;20116;-62
2023/02/18 00:13:09;;;;;;;4.10;2.70;;;;;;;18.56;48.93;102108.47;5053451;28;20029;-62
2023/02/18 00:15:35;;;;;;;4.93;3.22;;;;;;;18.55;49.13;102108.63;5035630;28;20060;-62
2023/02/18 00:18:00;;;;;;;5.28;3.33;;;;;;;18.55;49.29;102108.63;5052216;28;20039;-62
2023/02/18 00:20:26;;;;;;;4.05;2.92;;;;;;;18.54;49.28;102106.91;5035959;28;20497;-62
2023/02/18 00:22:51;;;;;;;13.63;4.25;;;;;;;18.53;49.62;102094.38;5035543;28;20501;-62
2023/02/18 00:25:17;;;;;;;4.55;3.30;;;;;;;18.51;49.56;102093.63;5053503;28;20087;-62
2023/02/18 00:27:42;;;;;;;4.20;2.90;;;;;;;18.50;49.48;102091.94;5035636;28;20597;-62
2023/02/18 00:30:08;;;;;;;4.68;3.38;;;;;;;18.50;49.47;102090.09;5053339;28;20032;-62
2023/02/18 00:32:34;;;;;;;6.38;3.47;;;;;;;18.51;49.56;102090.91;5035826;28;20060;-63
2023/02/18 00:34:59;;;;;;;4.35;3.30;;;;;;;18.49;49.38;102076.66;5053204;28;20120;-62
2023/02/18 00:37:25;;;;;;;6.30;3.40;;;;;;;18.50;49.45;102075.66;5053172;28;20025;-62
2023/02/18 00:39:51;;;;;;;8.13;4.03;;;;;;;18.50;49.68;102067.53;5052884;28;20064;-62
2023/02/18 00:42:16;;;;;;;6.78;3.53;;;;;;;18.51;49.29;102074.63;5052977;28;20033;-62
2023/02/18 00:44:41;;;;;;;5.55;3.40;;;;;;;18.49;49.09;102076.66;5052091;28;20401;-63
2023/02/18 00:47:07;;;;;;;6.53;3.92;;;;;;;18.46;49.57;102066.06;5035160;28;20033;-62
2023/02/18 00:49:32;;;;;;;6.00;3.63;;;;;;;18.45;49.94;102075.22;5035239;28;20028;-62
2023/02/18 00:51:58;;;;;;;8.75;4.75;;;;;;;18.42;49.55;102068.25;5035264;28;20057;-62
2023/02/18 00:54:23;;;;;;;8.82;5.32;;;;;;;18.36;49.51;102062.56;5035078;28;20025;-61
2023/02/18 00:56:49;;;;;;;8.73;4.38;;;;;;;18.36;49.67;102065.28;5052626;28;20053;-62
2023/02/18 00:59:15;;;;;;;8.07;4.32;;;;;;;18.33;49.90;102054.72;5035291;28;20033;-62
2023/02/18 01:01:41;;;;;;;9.02;5.22;;;;;;;18.33;49.75;102049.28;5030148;28;20040;-62
2023/02/18 01:04:06;;;;;;;8.75;4.47;;;;;;;18.35;49.71;102060.84;5024325;28;20025;-62
2023/02/18 01:06:32;;;;;;;8.55;4.72;;;;;;;18.36;49.75;102062.56;5023509;28;20033;-62
2023/02/18 01:08:57;;;;;;;10.48;4.25;;;;;;;18.35;49.38;102053.56;5030830;28;20029;-63
2023/02/18 01:11:22;;;;;;;10.27;4.60;;;;;;;18.33;49.77;102054.72;5033857;28;20366;-62
2023/02/18 01:13:48;;;;;;;6.78;4.80;;;;;;;18.37;50.00;102053.44;5050090;28;20124;-62
2023/02/18 01:16:13;;;;;;;8.98;4.32;;;;;;;18.33;49.68;102043.84;5016850;28;20075;-62
2023/02/18 01:18:39;;;;;;;10.45;5.20;;;;;;;18.32;49.49;102050.28;5033259;28;20048;-62
2023/02/18 01:21:07;;;;;;;11.35;5.15;;;;;;;18.26;49.91;102037.31;5051183;28;20083;-62
2023/02/18 01:23:33;;;;;;;10.00;4.88;;;;;;;18.25;49.47;102043.75;5034078;28;20024;-62
2023/02/18 01:25:58;;;;;;;8.77;4.68;;;;;;;18.21;50.23;102034.19;5016891;28;20041;-62
2023/02/18 01:28:24;;;;;;;11.88;5.15;;;;;;;18.20;50.50;102032.50;5025165;28;20079;-62
2023/02/18 01:30:51;;;;;;;11.20;5.45;;;;;;;18.19;50.04;102036.22;5041593;28;20493;-62
2023/02/18 01:33:17;;;;;;;10.60;5.00;;;;;;;18.16;50.46;102025.66;5033237;28;20041;-62
2023/02/18 01:35:43;;;;;;;10.18;4.85;;;;;;;18.15;50.04;102023.94;5018803;28;20408;-62
2023/02/18 01:38:09;;;;;;;12.48;5.75;;;;;;;18.17;50.26;102021.94;5055036;28;20076;-62
2023/02/18 01:40:35;;;;;;;9.68;4.63;;;;;;;18.15;49.95;102022.09;5020513;28;20405;-62
2023/02/18 01:43:00;;;;;;;9.45;4.28;;;;;;;18.14;50.65;102017.69;5037077;28;20033;-62
2023/02/18 01:45:32;;;;;;;9.27;4.55;;;;;;;18.12;51.11;102019.66;5037022;28;20036;-63
2023/02/18 01:48:06;;;;;;;13.40;5.20;;;;;;;18.09;50.15;102013.72;5055656;28;20024;-62
2023/02/18 01:50:33;;;;;;;12.07;5.85;;;;;;;18.08;51.03;102012.00;5038852;28;20024;-62
2023/02/18 01:52:59;;;;;;;9.27;4.82;;;;;;;18.09;50.96;102006.41;5021894;28;20055;-62
2023/02/18 01:55:25;;;;;;;10.07;4.68;;;;;;;18.10;50.57;102005.41;5038355;28;20053;-62
2023/02/18 01:57:50;;;;;;;8.27;4.07;;;;;;;18.12;50.87;102013.41;5038289;28;20029;-62
2023/02/18 02:00:20;;;;;;;10.05;4.32;;;;;;;18.12;50.86;102008.00;5038108;28;20033;-62
2023/02/18 02:02:46;;;;;;;8.60;4.55;;;;;;;18.13;50.45;101999.69;5039136;28;20080;-63
2023/02/18 02:05:12;;;;;;;11.93;3.65;;;;;;;18.15;50.59;101988.69;5021704;28;20041;-62
2023/02/18 02:07:40;;;;;;;11.65;4.75;;;;;;;18.13;50.65;101993.41;5038318;28;20516;-62
2023/02/18 02:10:06;;;;;;;8.55;4.47;;;;;;;18.14;50.11;101995.13;5037117;28;20523;-62
2023/02/18 02:12:38;;;;;;;7.82;3.95;;;;;;;18.11;51.01;101990.84;5005606;28;20498;-62
2023/02/18 02:15:41;;;;;;;13.87;4.20;;;;;;;18.10;50.78;101982.84;5037956;28;20477;-62
2023/02/18 02:18:28;;;;;;;7.80;3.40;;;;;;;18.12;50.06;101980.88;5037739;28;20041;-62
2023/02/18 02:21:03;;;;;;;9.75;4.40;;;;;;;18.13;50.27;101994.28;5055589;28;20404;-62
2023/02/18 02:23:31;;;;;;;11.10;3.97;;;;;;;18.17;50.60;101981.28;5056001;28;20025;-62
2023/02/18 02:26:18;;;;;;;7.25;3.50;;;;;;;18.18;50.54;101974.81;5055840;28;20057;-63
2023/02/18 02:29:08;;;;;;;7.97;3.60;;;;;;;18.18;50.72;101977.53;5055460;28;20052;-63
2023/02/18 02:31:58;;;;;;;7.07;3.58;;;;;;;18.19;50.49;101971.13;5055526;28;20029;-62
2023/02/18 02:34:47;;;;;;;7.80;3.22;;;;;;;18.17;51.24;101967.72;5055430;28;20061;-62
2023/02/18 02:37:24;;;;;;;8.77;2.78;;;;;;;18.12;51.16;101960.00;5027949;28;20044;-62
2023/02/18 02:40:14;;;;;;;9.40;3.35;;;;;;;18.09;50.80;101956.75;5055358;28;20405;-62
2023/02/18 02:42:50;;;;;;;5.50;2.22;;;;;;;18.08;50.67;101946.91;5055146;28;20037;-62
2023/02/18 02:45:32;;;;;;;4.25;1.85;;;;;;;18.08;51.06;101945.06;5037660;28;20049;-62
2023/02/18 02:48:21;;;;;;;3.45;2.10;;;;;;;18.09;50.99;101937.78;5036090;28;20017;-62
2023/02/18 02:51:28;;;;;;;3.53;1.58;;;;;;;18.03;51.46;101921.09;5020707;28;20025;-63
2023/02/18 02:53:53;;;;;;;2.88;1.65;;;;;;;17.99;51.08;101926.97;5026519;28;20122;-63
2023/02/18 02:56:22;;;;;;;1.85;1.27;;;;;;;17.94;51.41;101916.59;5037670;28;20081;-62
2023/02/18 02:58:58;;;;;;;1.08;0.82;;;;;;;17.92;50.42;101926.69;5020665;28;20033;-62
2023/02/18 03:01:39;;;;;;;0.80;0.52;;;;;;;17.86;51.57;101916.47;5037074;28;20040;-62
2023/02/18 03:04:46;;;;;;;1.70;1.00;;;;;;;17.87;50.40;101918.16;5037048;28;20032;-62
2023/02/18 03:07:19;;;;;;;1.25;0.68;;;;;;;17.85;51.87;101913.91;5037026;28;20410;-62
2023/02/18 03:10:00;;;;;;;0.82;0.60;;;;;;;17.84;51.78;101917.59;5037145;28;20029;-63
2023/02/18 03:12:39;;;;;;;0.70;0.60;;;;;;;17.79;51.82;101915.34;5036845;28;20033;-62
2023/02/18 03:15:12;;;;;;;0.80;0.43;;;;;;;17.79;51.44;101912.66;5054610;28;20431;-62
2023/02/18 03:17:51;;;;;;;0.93;0.57;;;;;;;17.79;51.43;101920.78;5055098;28;20021;-62
2023/02/18 03:20:31;;;;;;;0.95;0.50;;;;;;;17.79;51.60;101911.78;5036639;28;20041;-62
2023/02/18 03:22:57;;;;;;;0.77;0.57;;;;;;;17.77;51.05;101906.53;5020138;28;20029;-62
2023/02/18 03:25:23;;;;;;;1.02;0.43;;;;;;;17.74;51.64;101904.13;5036814;28;20056;-62
2023/02/18 03:27:52;;;;;;;0.82;0.50;;;;;;;17.74;51.48;101893.28;5020185;28;20033;-62
2023/02/18 03:30:34;;;;;;;3.70;0.52;;;;;;;17.74;51.46;101890.56;5036541;28;20029;-62
2023/02/18 03:33:03;;;;;;;0.40;0.40;;;;;;;17.70;51.85;101893.72;5036622;28;20056;-62
2023/02/18 03:35:29;;;;;;;0.55;0.50;;;;;;;17.63;51.69;101892.59;5036918;28;20103;-62
2023/02/18 03:38:35;;;;;;;1.08;0.47;;;;;;;17.60;51.96;101892.91;5036480;28;20055;-62
2023/02/18 03:41:00;;;;;;;1.42;1.15;;;;;;;17.56;51.43;101886.91;5004531;28;20091;-62
2023/02/18 03:43:25;;;;;;;1.58;0.50;;;;;;;17.55;51.97;101885.22;5036257;28;20029;-63
2023/02/18 03:45:51;;;;;;;1.13;0.68;;;;;;;17.53;51.74;101880.94;5019830;28;20401;-62
2023/02/18 03:48:16;;;;;;;0.52;0.50;;;;;;;17.55;51.88;101879.81;5036114;28;20508;-62
2023/02/18 03:50:42;;;;;;;0.50;0.32;;;;;;;17.51;51.94;101866.66;5020126;28;20021;-62
2023/02/18 03:53:07;;;;;;;0.63;0.60;;;;;;;17.49;51.41;101853.28;5053840;28;20032;-62
2023/02/18 03:55:33;;;;;;;0.50;0.40;;;;;;;17.48;51.83;101852.41;5036026;28;20499;-62
2023/02/18 03:57:58;;;;;;;0.85;0.68;;;;;;;17.48;51.74;101851.56;5036810;28;20029;-62
2023/02/18 04:00:23;;;;;;;0.28;0.28;;;;;;;17.47;52.05;101842.56;5021573;28;20111;-62
2023/02/18 04:02:49;;;;;;;0.73;0.45;;;;;;;17.48;52.16;101852.41;5054389;28;20031;-62
2023/02/18 04:05:14;;;;;;;1.40;0.77;;;;;;;17.49;52.37;101855.97;5036711;28;20115;-63
2023/02/18 04:07:40;;;;;;;1.25;0.77;;;;;;;17.50;52.51;101856.84;5034863;28;20059;-62
2023/02/18 04:10:07;;;;;;;1.15;0.70;;;;;;;17.48;52.40;101856.97;5034746;28;20423;-62
2023/02/18 04:12:32;;;;;;;0.57;0.40;;;;;;;17.48;52.57;101848.84;5036000;28;20037;-62
2023/02/18 04:14:58;;;;;;;2.80;0.75;;;;;;;17.47;52.06;101856.13;5053454;28;20017;-62
2023/02/18 04:17:23;;;;;;;0.80;0.73;;;;;;;17.49;52.59;101847.84;5036059;28;20033;-62
2023/02/18 04:19:49;;;;;;;1.45;0.73;;;;;;;17.50;52.21;101844.16;5052105;28;20386;-62
2023/02/18 04:22:14;;;;;;;0.55;0.55;;;;;;;17.51;52.48;101842.28;5036055;28;20029;-62
2023/02/18 04:24:39;;;;;;;0.63;0.63;;;;;;;17.48;52.58;101836.16;5053199;28;20037;-63
2023/02/18 04:27:05;;;;;;;0.95;0.73;;;;;;;17.50;51.97;101846.00;5053155;28;20029;-62
2023/02/18 04:29:30;;;;;;;2.30;1.48;;;;;;;17.51;51.76;101837.72;5035918;28;20021;-61
2023/02/18 04:31:56;;;;;;;1.00;0.75;;;;;;;17.55;52.28;101836.47;5053220;28;20060;-62
2023/02/18 04:34:21;;;;;;;0.80;0.65;;;;;;;17.55;52.48;101841.03;5018951;28;20041;-62
2023/02/18 04:36:46;;;;;;;2.33;0.68;;;;;;;17.56;51.44;101840.03;5053218;28;20397;-63
2023/02/18 04:39:12;;;;;;;0.90;0.70;;;;;;;17.58;52.28;101841.59;5052948;28;20127;-62
2023/02/18 04:41:38;;;;;;;0.63;0.50;;;;;;;17.56;52.42;101832.72;5053539;28;20104;-62
2023/02/18 04:44:03;;;;;;;1.40;0.70;;;;;;;17.51;52.67;101829.59;5035186;28;20044;-62
2023/02/18 04:46:29;;;;;;;0.98;0.68;;;;;;;17.54;52.37;101840.16;5022014;28;20045;-62
2023/02/18 04:48:54;;;;;;;1.58;0.70;;;;;;;17.51;52.38;101828.72;5015328;28;20034;-62
2023/02/18 04:51:20;;;;;;;1.08;0.75;;;;;;;17.50;52.62;101827.03;5032928;28;20034;-62
2023/02/18 04:53:45;;;;;;;1.80;0.65;;;;;;;17.51;51.83;101826.88;5015840;28;20486;-62
2023/02/18 04:56:10;;;;;;;1.45;1.00;;;;;;;17.52;52.13;101836.72;5015217;28;20052;-62
2023/02/18 04:58:36;;;;;;;2.75;1.00;;;;;;;17.48;52.11;101830.75;5015128;28;20052;-62
2023/02/18 05:01:03;;;;;;;2.97;0.60;;;;;;;17.47;52.42;101833.63;5015178;28;20026;-62
2023/02/18 05:03:29;;;;;;;1.45;1.00;;;;;;;17.44;52.42;101828.50;5032852;28;20030;-62
2023/02/18 05:05:54;;;;;;;0.90;0.73;;;;;;;17.45;52.16;101825.63;5015449;28;20039;-62
2023/02/18 05:08:20;;;;;;;2.17;1.05;;;;;;;17.50;51.72;101832.47;5015643;28;20048;-62
2023/02/18 05:10:45;;;;;;;0.90;0.70;;;;;;;17.49;52.06;101823.47;4998082;28;20519;-62
2023/02/18 05:13:10;;;;;;;0.75;0.65;;;;;;;17.51;52.73;101829.59;5015302;28;20043;-62
2023/02/18 05:15:36;;;;;;;1.92;0.80;;;;;;;17.55;52.49;101835.59;4998727;28;20025;-62
2023/02/18 05:18:01;;;;;;;2.88;1.10;;;;;;;17.54;52.71;101834.75;5015045;28;20040;-61
2023/02/18 05:20:27;;;;;;;1.83;1.15;;;;;;;17.55;52.49;101833.75;4998909;28;20483;-61
2023/02/18 05:22:52;;;;;;;1.80;1.13;;;;;;;17.57;51.93;101845.28;5015170;28;20556;-61
2023/02/18 05:25:18;;;;;;;1.17;1.00;;;;;;;17.57;52.71;101842.56;5014989;28;20437;-62
2023/02/18 05:27:43;;;;;;;1.60;1.08;;;;;;;17.56;51.99;101832.72;4998556;28;20064;-62
2023/02/18 05:30:09;;;;;;;2.42;1.13;;;;;;;17.58;51.96;101829.88;5014969;28;20194;-62
2023/02/18 05:32:34;;;;;;;1.48;1.20;;;;;;;17.57;52.17;101833.59;5032892;28;20107;-62
2023/02/18 05:35:00;;;;;;;3.30;1.40;;;;;;;17.59;51.13;101827.00;5014937;28;20041;-62
2023/02/18 05:37:25;;;;;;;1.35;1.15;;;;;;;17.60;51.30;101807.06;4998674;28;20049;-62
2023/02/18 05:39:50;;;;;;;1.48;0.80;;;;;;;17.61;51.81;101802.50;5014801;28;20120;-62
2023/02/18 05:42:16;;;;;;;1.33;0.80;;;;;;;17.60;51.31;101796.22;5014891;28;20026;-62
2023/02/18 05:44:41;;;;;;;4.53;0.90;;;;;;;17.63;51.60;101798.63;5032771;28;20138;-62
2023/02/18 05:47:09;;;;;;;1.00;0.82;;;;;;;17.65;51.57;101780.34;5032463;28;20033;-62
2023/02/18 05:49:35;;;;;;;1.55;0.82;;;;;;;17.63;52.30;101774.25;5014818;28;20099;-62
2023/02/18 05:52:00;;;;;;;1.58;0.75;;;;;;;17.61;52.04;101760.00;5014074;28;20040;-62
2023/02/18 05:54:26;;;;;;;0.68;0.65;;;;;;;17.60;52.05;101766.41;5014816;28;20033;-62
2023/02/18 05:56:51;;;;;;;0.57;0.52;;;;;;;17.61;52.03;101775.41;5014610;28;20076;-62
2023/02/18 05:59:17;;;;;;;0.68;0.60;;;;;;;17.63;51.60;101779.66;5032668;28;20053;-62
2023/02/18 06:01:43;;;;;;;1.15;0.80;;;;;;;17.62;51.42;101766.25;4998390;28;20469;-62
2023/02/18 06:04:09;;;;;;;0.85;0.70;;;;;;;17.63;50.99;101773.38;4982081;28;20524;-62
2023/02/18 06:06:34;;;;;;;0.70;0.70;;;;;;;17.60;51.97;101763.69;5014753;28;20031;-62
2023/02/18 06:09:00;;;;;;;0.65;0.50;;;;;;;17.60;51.38;101769.13;4998091;28;20033;-63
2023/02/18 06:11:25;;;;;;;0.60;0.47;;;;;;;17.58;51.23;101771.13;5015293;28;20025;-62
2023/02/18 06:13:51;;;;;;;0.68;0.38;;;;;;;17.53;51.78;101767.13;5014725;28;20025;-62
2023/02/18 06:16:16;;;;;;;2.33;0.50;;;;;;;17.52;51.53;101770.84;5032419;28;20029;-62
2023/02/18 06:18:41;;;;;;;0.70;0.60;;;;;;;17.52;51.35;101766.28;5032037;28;20437;-61
2023/02/18 06:21:07;;;;;;;0.63;0.60;;;;;;;17.50;51.36;101773.72;5032956;28;20044;-62
2023/02/18 06:23:32;;;;;;;1.85;0.45;;;;;;;17.54;50.97;101788.69;4985875;28;20044;-62
2023/02/18 06:25:58;;;;;;;1.15;0.65;;;;;;;17.57;51.09;101779.41;5018206;28;20056;-62
2023/02/18 06:28:23;;;;;;;1.63;0.77;;;;;;;17.60;51.84;101779.97;5018089;28;20034;-62
2023/02/18 06:30:49;;;;;;;1.02;0.65;;;;;;;17.59;51.93;101782.84;5018023;28;20409;-62
2023/02/18 06:33:14;;;;;;;1.58;0.60;;;;;;;17.59;51.44;101780.13;5018000;28;20486;-62
2023/02/18 06:35:39;;;;;;;1.00;0.80;;;;;;;17.57;51.17;101765.84;5001531;28;20033;-62
2023/02/18 06:38:05;;;;;;;1.08;0.50;;;;;;;17.58;51.28;101762.16;5001562;28;20029;-62
2023/02/18 06:40:30;;;;;;;1.10;0.50;;;;;;;17.58;51.69;101754.88;5035331;28;20510;-62
2023/02/18 06:42:56;;;;;;;0.93;0.63;;;;;;;17.58;50.81;101763.00;5017802;28;20033;-62
2023/02/18 06:45:21;;;;;;;2.53;0.80;;;;;;;17.54;50.86;101764.31;5018035;28;20045;-62
2023/02/18 06:47:47;;;;;;;0.40;0.40;;;;;;;17.52;50.89;101766.28;5017622;28;20068;-64
2023/02/18 06:50:13;;;;;;;2.90;0.60;;;;;;;17.46;50.91;101756.91;5001511;28;20025;-62
2023/02/18 06:52:38;;;;;;;0.68;0.50;;;;;;;17.50;51.04;101767.44;5001310;28;20032;-62
2023/02/18 06:55:04;;;;;;;2.15;0.38;;;;;;;17.46;51.72;101758.75;5034007;28;20048;-62
2023/02/18 06:57:30;;;;;;;0.73;0.57;;;;;;;17.44;51.13;101764.34;5000998;28;20417;-62
2023/02/18 06:59:55;;;;;;;1.23;0.60;;;;;;;17.42;51.24;101766.31;5017450;28;20029;-62
2023/02/18 07:02:21;;;;;;;0.82;0.50;;;;;;;17.37;50.90;101763.22;5001323;28;20075;-62
2023/02/18 07:04:46;;;;;;;0.50;0.40;;;;;;;17.38;50.86;101766.78;5017385;28;20045;-62
2023/02/18 07:07:12;;;;;;;1.08;0.38;;;;;;;17.35;51.30;101780.63;5033718;28;20134;-62
2023/02/18 07:09:38;;;;;;;3.30;1.00;;;;;;;17.26;51.15;101781.50;5034894;28;20632;-62
2023/02/18 07:12:03;;;;;;;1.35;0.60;;;;;;;17.29;51.35;101787.50;5034804;28;20048;-62
2023/02/18 07:14:29;;;;;;;0.35;0.22;;;;;;;17.28;51.58;101784.94;5035212;28;20448;-62
2023/02/18 07:16:54;;;;;;;1.13;0.40;;;;;;;17.29;51.19;101781.22;5017262;28;20117;-62
2023/02/18 07:19:19;;;;;;;4.72;0.80;;;;;;;17.31;50.66;101784.63;5016971;28;20029;-62
2023/02/18 07:21:45;;;;;;;2.80;0.35;;;;;;;17.30;51.58;101788.34;5034703;28;20032;-62
2023/02/18 07:24:10;;;;;;;1.35;0.38;;;;;;;17.29;50.75;101805.59;5000588;28;20056;-62
2023/02/18 07:26:36;;;;;;;1.88;0.60;;;;;;;17.28;50.65;101795.78;5017182;28;20128;-62
2023/02/18 07:29:01;;;;;;;1.40;0.50;;;;;;;17.26;51.12;101789.63;5034701;28;20052;-62
2023/02/18 07:31:26;;;;;;;4.43;0.70;;;;;;;17.29;51.00;101786.63;5017050;28;20520;-62
2023/02/18 07:33:52;;;;;;;3.28;0.75;;;;;;;17.25;50.99;101791.47;5016222;28;20034;-62
2023/02/18 07:36:17;;;;;;;3.95;0.68;;;;;;;17.25;50.96;101812.31;5034299;28;20029;-62
2023/02/18 07:38:43;;;;;;;8.30;1.30;;;;;;;17.21;50.52;101806.34;5016937;28;20033;-62
2023/02/18 07:41:20;;;;;;;1.08;0.57;;;;;;;17.22;50.48;101813.47;5015961;28;20033;-63
2023/02/18 07:43:46;;;;;;;1.65;0.60;;;;;;;17.23;51.33;101814.31;5016449;28;20049;-63
2023/02/18 07:46:11;;;;;;;3.00;0.77;;;;;;;17.23;50.63;101812.44;5016698;28;20068;-62
2023/02/18 07:48:37;;;;;;;2.70;0.98;;;;;;;17.21;50.56;101817.16;5034302;28;20029;-63
2023/02/18 07:51:07;;;;;;;3.50;0.98;;;;;;;17.24;51.38;101833.13;5034151;28;20544;-62
2023/02/18 07:53:32;;;;;;;3.38;0.90;;;;;;;17.20;50.53;101820.00;5034490;28;20030;-63
2023/02/18 07:55:59;;;;;;;3.38;0.80;;;;;;;17.20;50.65;101831.69;5019125;28;20067;-63
2023/02/18 07:58:30;;;;;;;8.25;1.17;;;;;;;17.17;50.16;101832.00;5019535;28;20056;-63
2023/02/18 08:00:56;;;;;;;4.82;1.00;;;;;;;17.20;51.31;101828.13;5019666;28;20067;-63
2023/02/18 08:03:27;;;;;;;5.05;1.02;;;;;;;17.22;50.10;101828.88;5035911;28;20040;-63
2023/02/18 08:05:53;;;;;;;11.95;0.93;;;;;;;17.20;50.30;101820.88;5053822;28;20021;-62
2023/02/18 08:08:22;;;;;;;6.13;0.90;;;;;;;17.24;50.36;101832.28;5036445;28;20021;-62
2023/02/18 08:10:48;;;;;;;4.95;1.05;;;;;;;17.26;50.24;101825.69;5053587;28;20052;-62
2023/02/18 08:13:14;;;;;;;2.40;1.00;;;;;;;17.29;50.33;101840.78;5035942;28;20128;-62
2023/02/18 08:15:39;;;;;;;3.67;0.90;;;;;;;17.26;50.09;101831.13;5019425;28;20501;-62
2023/02/18 08:18:06;;;;;;;4.40;1.25;;;;;;;17.28;50.97;101828.28;5035935;28;20041;-62
2023/02/18 08:20:36;;;;;;;1.77;0.75;;;;;;;17.28;49.68;101822.84;5053893;28;20107;-62
2023/02/18 08:23:02;;;;;;;6.78;1.00;;;;;;;17.29;50.58;101829.97;5035792;28;20067;-62
2023/02/18 08:25:28;;;;;;;1.63;0.77;;;;;;;17.30;50.02;101824.41;5019414;28;20142;-62
2023/02/18 08:27:53;;;;;;;6.82;1.38;;;;;;;17.26;49.52;101819.44;5036196;28;20532;-62
2023/02/18 08:30:19;;;;;;;6.93;0.88;;;;;;;17.32;49.36;101824.25;5054518;28;20039;-62
2023/02/18 08:32:44;;;;;;;4.05;0.93;;;;;;;17.37;50.59;101827.38;5037281;28;20485;-62
2023/02/18 08:35:10;;;;;;;6.75;1.40;;;;;;;17.40;50.26;101833.34;5053660;28;20056;-62
2023/02/18 08:37:36;;;;;;;3.90;1.13;;;;;;;17.41;49.22;101835.06;5035753;28;20026;-62
2023/02/18 08:40:02;;;;;;;4.25;0.93;;;;;;;17.42;49.37;101828.63;5035584;28;20107;-62
2023/02/18 08:42:27;;;;;;;2.30;0.90;;;;;;;17.48;48.90;101833.44;5035363;28;20524;-62
2023/02/18 08:44:52;;;;;;;8.32;1.40;;;;;;;17.50;49.11;101817.06;5034332;28;20037;-62
2023/02/18 08:47:18;;;;;;;3.80;1.17;;;;;;;17.54;49.33;101834.75;5035952;28;20433;-62
2023/02/18 08:49:43;;;;;;;7.70;1.20;;;;;;;17.61;49.33;101821.47;5053048;28;20032;-62
2023/02/18 08:52:09;;;;;;;9.15;1.00;;;;;;;17.65;48.78;101812.00;5053048;28;20033;-62
2023/02/18 08:54:34;;;;;;;3.90;0.90;;;;;;;17.74;48.48;101819.25;5035197;28;20028;-62
2023/02/18 08:56:59;;;;;;;3.00;1.02;;;;;;;17.82;49.31;101806.63;5031134;28;20053;-62
2023/02/18 08:59:25;;;;;;;5.25;0.80;;;;;;;17.86;49.01;101816.19;5033323;28;20083;-62
2023/02/18 09:01:51;;;;;;;9.98;2.35;;;;;;;17.87;49.71;101820.59;5031750;28;20143;-62
2023/02/18 09:04:16;;;;;;;5.57;1.15;;;;;;;17.92;48.61;101817.44;5015482;28;20098;-62
2023/02/18 09:06:42;;;;;;;4.22;1.10;;;;;;;17.95;48.85;101817.97;5033170;28;20040;-62
2023/02/18 09:09:08;;;;;;;4.55;1.15;;;;;;;17.94;48.95;101810.84;5015409;28;20100;-62
2023/02/18 09:11:35;;;;;;;5.18;1.15;;;;;;;18.00;48.39;101803.97;5032044;28;20060;-62
2023/02/18 09:14:01;;;;;;;10.27;2.17;;;;;;;18.02;49.07;101819.06;5014990;28;20121;-62
2023/02/18 09:16:28;;;;;;;6.28;1.00;;;;;;;18.07;49.12;101817.75;5032788;28;20494;-62
2023/02/18 09:18:54;;;;;;;5.32;1.85;;;;;;;18.10;49.23;101820.16;5015224;28;20417;-62
2023/02/18 09:21:21;;;;;;;6.18;1.10;;;;;;;18.12;48.37;101815.44;5031619;28;20033;-62
2023/02/18 09:23:47;;;;;;;8.60;1.33;;;;;;;18.09;48.24;101810.31;5048483;28;20401;-62
2023/02/18 09:26:13;;;;;;;7.13;1.15;;;;;;;18.07;48.18;101810.47;5031654;28;20038;-62
2023/02/18 09:28:39;;;;;;;10.40;1.23;;;;;;;18.07;48.16;101798.75;5031367;28;20083;-62
2023/02/18 09:31:08;;;;;;;7.65;1.30;;;;;;;18.04;48.58;101795.34;5031439;28;20505;-62
2023/02/18 09:33:35;;;;;;;5.95;1.20;;;;;;;18.04;48.63;101806.19;5015011;28;20474;-62
2023/02/18 09:36:01;;;;;;;8.23;1.77;;;;;;;18.02;48.62;101797.38;5031527;28;20029;-62
2023/02/18 09:38:26;;;;;;;3.42;1.05;;;;;;;17.99;48.62;101792.25;5032833;28;20033;-62
2023/02/18 09:40:53;;;;;;;7.13;1.52;;;;;;;17.97;47.96;101791.56;5032534;28;20048;-62
2023/02/18 09:43:37;;;;;;;3.85;1.25;;;;;;;17.97;48.94;101799.69;5031335;28;20037;-62
2023/02/18 09:46:03;;;;;;;1.58;0.63;;;;;;;17.97;48.30;101783.44;5031466;28;20029;-62
2023/02/18 09:48:34;;;;;;;8.45;1.02;;;;;;;17.98;49.04;101795.97;5014907;28;20108;-62
2023/02/18 09:50:59;;;;;;;5.93;1.15;;;;;;;17.94;47.91;101781.03;5032475;28;20025;-62
2023/02/18 09:53:25;;;;;;;4.72;0.90;;;;;;;17.94;47.91;101786.44;5031324;28;20025;-62
2023/02/18 09:55:53;;;;;;;4.43;1.48;;;;;;;17.91;47.89;101784.03;5048049;28;20072;-62
2023/02/18 09:58:29;;;;;;;2.60;1.02;;;;;;;17.92;48.15;101780.31;5034864;28;20033;-62
2023/02/18 10:01:04;;;;;;;9.23;1.08;;;;;;;17.94;48.78;101797.28;5034895;28;20038;-62
2023/02/18 10:03:29;;;;;;;2.83;1.00;;;;;;;17.92;48.32;101788.44;5034910;28;20502;-62
2023/02/18 10:06:05;;;;;;;5.32;1.02;;;;;;;17.90;49.13;101793.16;5018388;28;20032;-62
2023/02/18 10:08:43;;;;;;;8.35;1.60;;;;;;;17.88;47.87;101784.34;5018735;28;20481;-63
2023/02/18 10:11:15;;;;;;;8.20;1.25;;;;;;;17.85;48.73;101781.09;5034909;28;20124;-62
2023/02/18 10:13:40;;;;;;;5.00;1.02;;;;;;;17.84;48.89;101793.78;5034993;28;20032;-62
2023/02/18 10:16:06;;;;;;;3.30;1.05;;;;;;;17.83;48.85;101791.22;5018170;28;20033;-62
2023/02/18 10:18:41;;;;;;;2.85;0.90;;;;;;;17.84;48.77;101799.19;5018192;28;20038;-62
2023/02/18 10:21:11;;;;;;;3.85;1.00;;;;;;;17.83;48.68;101788.53;5051168;28;20033;-62
2023/02/18 10:23:39;;;;;;;3.92;0.77;;;;;;;17.83;48.51;101786.66;5035120;28;20045;-62
2023/02/18 10:26:07;;;;;;;5.38;1.20;;;;;;;17.82;48.72;101797.66;5018162;28;20040;-62
2023/02/18 10:28:34;;;;;;;5.40;1.52;;;;;;;17.78;48.49;101786.25;5051169;28;20052;-63
2023/02/18 10:31:09;;;;;;;1.92;0.85;;;;;;;17.79;48.31;101801.53;5034557;28;20409;-62
2023/02/18 10:33:43;;;;;;;7.78;2.13;;;;;;;17.77;49.12;101813.53;5017947;28;20026;-62
2023/02/18 10:36:14;;;;;;;3.22;0.90;;;;;;;17.73;48.87;101818.38;5035554;28;20045;-63
2023/02/18 10:38:53;;;;;;;5.80;0.80;;;;;;;17.73;48.74;101818.38;5036073;28;20470;-62
2023/02/18 10:41:45;;;;;;;3.13;0.80;;;;;;;17.72;48.99;101827.53;5034481;28;20091;-62
2023/02/18 10:44:35;;;;;;;0.65;0.45;;;;;;;17.71;49.64;101820.41;5035684;28;20060;-61
2023/02/18 10:47:29;;;;;;;7.05;1.00;;;;;;;17.65;49.74;101815.56;5034154;28;20401;-62
2023/02/18 10:49:58;;;;;;;7.13;1.08;;;;;;;17.59;49.35;101821.59;5034276;28;20053;-61
2023/02/18 10:52:26;;;;;;;5.00;0.82;;;;;;;17.60;48.80;101828.72;5033929;28;20037;-61
2023/02/18 10:54:52;;;;;;;5.60;1.00;;;;;;;17.60;48.93;101827.88;5033677;28;20084;-62
2023/02/18 10:57:20;;;;;;;3.15;0.95;;;;;;;17.59;49.02;101820.75;5042444;28;20064;-62
2023/02/18 11:00:25;;;;;;;4.00;1.05;;;;;;;17.60;49.44;101826.03;5055392;28;20052;-61
2023/02/18 11:03:16;;;;;;;1.13;0.60;;;;;;;17.61;48.38;101825.03;5054947;28;20501;-62
2023/02/18 11:05:43;;;;;;;2.40;1.02;;;;;;;17.60;49.29;101819.75;5037719;28;20021;-62
2023/02/18 11:08:10;;;;;;;4.68;1.25;;;;;;;17.62;48.58;101825.84;5036034;28;20450;-61
2023/02/18 11:10:39;;;;;;;7.00;1.35;;;;;;;17.63;48.92;101823.00;5053778;28;20116;-62
2023/02/18 11:13:07;;;;;;;7.00;1.98;;;;;;;17.65;49.51;101836.41;5037197;28;20108;-62
2023/02/18 11:15:33;;;;;;;1.13;0.77;;;;;;;17.64;49.09;101823.88;5020471;28;20115;-61
2023/02/18 11:18:28;;;;;;;5.28;1.30;;;;;;;17.66;49.04;101838.13;5037153;28;20075;-61
2023/02/18 11:20:59;;;;;;;3.28;1.23;;;;;;;17.65;49.60;101828.25;5037054;28;20094;-62
2023/02/18 11:23:24;;;;;;;6.63;0.98;;;;;;;17.60;49.78;101822.44;5037248;28;20020;-61
2023/02/18 11:25:59;;;;;;;2.65;1.65;;;;;;;17.55;49.94;101830.19;5020335;28;20116;-61
2023/02/18 11:28:31;;;;;;;10.70;1.50;;;;;;;17.50;50.34;101841.44;5036709;28;20037;-62
2023/02/18 11:31:01;;;;;;;6.28;1.50;;;;;;;17.48;49.61;101838.88;5054446;28;20500;-62